Time,TemperatureF,DewpointF,PressureIn,WindDirection,WindDirectionDegrees,WindSpeedMPH,WindSpeedGustMPH,Humidity,HourlyPrecipIn,Conditions,Clouds,dailyrainin,SoftwareType,DateUTC
2013-02-19 00:00:00,49.3,48.2,29.94,WNW,292,23.0,26.0,96,0.00,CLR,,0.00,WeatherDisplay:10.37,2013-02-19 08:00:00,
2013-02-19 00:15:00,49.1,48.6,29.94,WNW,285,21.0,24.0,98,0.00,CLR,,0.00,WeatherDisplay:10.37,2013-02-19 08:15:00,
2013-02-19 00:30:00,48.9,47.3,29.91,WNW,289,20.0,24.0,94,0.00,CLR,,0.00,WeatherDisplay:10.37,2013-02-19 08:30:00,
2013-02-19 00:45:00,49.1,48.6,29.91,WNW,292,20.0,23.0,98,0.00,CLR,,0.00,WeatherDisplay:10.37,2013-02-19 08:45:00,
2013-02-19 01:00:00,48.9,48.4,29.91,WNW,292,17.0,23.0,98,0.00,CLR,,0.00,WeatherDisplay:10.37,2013-02-19 09:00:00,
2013-02-19 01:15:00,48.0,47.5,29.91,WNW,292,16.0,26.0,98,0.00,CLR,,0.00,WeatherDisplay:10.37,2013-02-19 09:15:00,
2013-02-19 01:30:00,48.0,47.5,29.91,WNW,292,14.0,20.0,98,0.00,CLR,,0.00,WeatherDisplay:10.37,2013-02-19 09:30:00,
2013-02-19 01:45:00,48.2,47.7,29.91,WNW,291,15.0,19.0,98,0.00,CLR,,0.00,WeatherDisplay:10.37,2013-02-19 09:45:00,
2013-02-19 02:00:00,48.2,47.7,29.91,WNW,290,13.0,22.0,98,0.00,CLR,,0.00,WeatherDisplay:10.37,2013-02-19 10:00:00,
2013-02-19 02:15:00,47.8,47.3,29.91,WNW,290,13.0,15.0,98,0.00,CLR,,0.00,WeatherDisplay:10.37,2013-02-19 10:15:00,
2013-02-19 02:30:00,47.7,47.1,29.91,WNW,295,12.0,17.0,98,0.00,CLR,,0.00,WeatherDisplay:10.37,2013-02-19 10:30:00,
2013-02-19 02:45:00,47.8,47.3,29.88,WNW,292,14.0,15.0,98,0.00,CLR,,0.00,WeatherDisplay:10.37,2013-02-19 10:45:00,
2013-02-19 03:00:00,47.8,47.3,29.88,WNW,290,10.0,15.0,98,0.00,CLR,,0.00,WeatherDisplay:10.37,2013-02-19 11:00:00,
2013-02-19 03:15:00,47.3,46.8,29.88,WNW,289,8.0,10.0,98,0.00,CLR,,0.00,WeatherDisplay:10.37,2013-02-19 11:15:00,
2013-02-19 03:30:00,47.3,46.8,29.88,WNW,284,6.0,9.0,98,0.00,CLR,,0.00,WeatherDisplay:10.37,2013-02-19 11:30:00,
2013-02-19 03:45:00,47.1,46.6,29.88,WSW,255,5.0,9.0,98,0.00,CLR,,0.00,WeatherDisplay:10.37,2013-02-19 11:45:00,
2013-02-19 04:00:00,47.3,46.8,29.88,WSW,251,6.0,9.0,98,0.00,CLR,,0.00,WeatherDisplay:10.37,2013-02-19 12:00:00,
2013-02-19 04:15:00,47.5,46.9,29.88,WSW,254,8.0,13.0,98,0.00,CLR,,0.00,WeatherDisplay:10.37,2013-02-19 12:15:00,
2013-02-19 04:30:00,48.2,47.7,29.88,WSW,247,9.0,13.0,98,0.00,CLR,,0.00,WeatherDisplay:10.37,2013-02-19 12:30:00,
2013-02-19 04:45:00,48.7,48.2,29.85,WSW,241,12.0,15.0,98,0.00,CLR,,0.00,WeatherDisplay:10.37,2013-02-19 12:45:00,
2013-02-19 05:00:00,49.1,48.6,29.85,WSW,245,13.0,16.0,98,0.00,CLR,,0.00,WeatherDisplay:10.37,2013-02-19 13:00:00,
2013-02-19 05:15:00,49.5,48.9,29.85,WSW,250,9.0,15.0,98,0.00,CLR,,0.00,WeatherDisplay:10.37,2013-02-19 13:15:00,
2013-02-19 05:30:00,48.5,47.9,29.85,WSW,252,10.0,23.0,98,0.00,CLR,,0.00,WeatherDisplay:10.37,2013-02-19 13:30:00,
2013-02-19 05:45:00,48.4,47.8,29.85,WSW,249,13.0,16.0,98,0.00,CLR,,0.00,WeatherDisplay:10.37,2013-02-19 13:45:00,
2013-02-19 06:00:00,48.5,47.9,29.85,WSW,243,14.0,17.0,98,0.00,CLR,,0.00,WeatherDisplay:10.37,2013-02-19 14:00:00,
2013-02-19 06:15:00,48.5,47.9,29.85,SW,227,12.0,17.0,98,0.00,CLR,,0.00,WeatherDisplay:10.37,2013-02-19 14:15:00,
2013-02-19 06:30:00,48.7,48.1,29.85,SW,229,17.0,19.0,98,0.00,CLR,,0.00,WeatherDisplay:10.37,2013-02-19 14:30:00,
2013-02-19 06:45:00,48.9,48.4,29.85,SW,216,9.0,18.0,98,0.00,CLR,,0.00,WeatherDisplay:10.37,2013-02-19 14:45:00,
2013-02-19 07:00:00,48.7,48.1,29.83,SW,218,10.0,19.0,98,0.00,CLR,,0.00,WeatherDisplay:10.37,2013-02-19 15:00:00,
2013-02-19 07:15:00,48.6,48.1,29.83,SSW,202,7.0,19.0,98,0.00,CLR,,0.00,WeatherDisplay:10.37,2013-02-19 15:15:00,
2013-02-19 07:30:00,48.6,48.0,29.83,South,191,8.0,13.0,98,0.00,CLR,,0.00,WeatherDisplay:10.37,2013-02-19 15:30:00,
2013-02-19 07:45:00,48.8,48.3,29.83,SSW,204,10.0,15.0,98,0.00,CLR,,0.00,WeatherDisplay:10.37,2013-02-19 15:45:00,
2013-02-19 08:00:00,49.5,48.9,29.83,SW,218,9.0,19.0,98,0.00,CLR,,0.00,WeatherDisplay:10.37,2013-02-19 16:00:00,
2013-02-19 08:15:00,50.2,49.6,29.83,SSW,200,8.0,17.0,98,0.00,CLR,,0.00,WeatherDisplay:10.37,2013-02-19 16:15:00,
2013-02-19 08:30:00,50.2,49.6,29.80,SSW,205,10.0,17.0,98,0.00,CLR,,0.00,WeatherDisplay:10.37,2013-02-19 16:30:00,
2013-02-19 08:45:00,49.6,49.1,29.80,SW,233,15.0,20.0,98,0.00,CLR,,0.00,WeatherDisplay:10.37,2013-02-19 16:45:00,
2013-02-19 09:00:00,49.1,48.6,29.80,WSW,255,12.0,24.0,98,0.00,CLR,,0.00,WeatherDisplay:10.37,2013-02-19 17:00:00,
2013-02-19 09:15:00,47.7,47.2,29.80,WNW,292,20.0,30.0,98,0.00,CLR,,0.00,WeatherDisplay:10.37,2013-02-19 17:15:00,
2013-02-19 09:30:00,47.1,46.5,29.80,WNW,294,23.0,26.0,98,0.00,CLR,,0.00,WeatherDisplay:10.37,2013-02-19 17:30:00,
2013-02-19 09:45:00,46.8,46.2,29.80,WNW,293,18.0,28.0,98,0.00,CLR,,0.00,WeatherDisplay:10.37,2013-02-19 17:45:00,
2013-02-19 10:00:00,46.0,45.5,29.80,WNW,295,22.0,29.0,98,0.00,CLR,,0.00,WeatherDisplay:10.37,2013-02-19 18:00:00,
2013-02-19 10:15:00,46.0,45.5,29.80,WNW,296,20.0,28.0,98,0.00,CLR,,0.00,WeatherDisplay:10.37,2013-02-19 18:15:00,
2013-02-19 10:30:00,45.9,45.4,29.80,WNW,295,21.0,23.0,98,0.00,CLR,,0.00,WeatherDisplay:10.37,2013-02-19 18:30:00,
2013-02-19 10:45:00,46.3,45.7,29.80,WNW,302,15.0,20.0,98,0.00,CLR,,0.00,WeatherDisplay:10.37,2013-02-19 18:45:00,
2013-02-19 11:00:00,47.7,47.2,29.80,WNW,301,10.0,16.0,98,0.00,CLR,,0.00,WeatherDisplay:10.37,2013-02-19 19:00:00,
2013-02-19 11:15:00,48.2,47.7,29.80,WNW,301,12.0,19.0,98,0.00,CLR,,0.00,WeatherDisplay:10.37,2013-02-19 19:15:00,
2013-02-19 11:30:00,48.6,48.0,29.80,WNW,292,9.0,16.0,98,0.00,CLR,,0.00,WeatherDisplay:10.37,2013-02-19 19:30:00,
2013-02-19 11:45:00,46.6,46.0,29.80,WNW,297,24.0,35.0,98,0.00,,,0.00,WeatherDisplay:10.37,2013-02-19 19:45:00,
2013-02-19 12:00:00,45.1,44.6,29.80,NW,311,23.0,39.0,98,0.00,CLR,,0.00,WeatherDisplay:10.37,2013-02-19 20:00:00,
2013-02-19 12:15:00,45.5,45.0,29.77,WNW,301,22.0,26.0,98,0.00,CLR,,0.00,WeatherDisplay:10.37,2013-02-19 20:15:00,
2013-02-19 12:30:00,45.5,45.0,29.80,WNW,302,21.0,31.0,98,0.00,CLR,,0.00,WeatherDisplay:10.37,2013-02-19 20:30:00,
2013-02-19 12:45:00,43.9,43.4,29.77,NW,306,29.0,43.0,98,0.00,CLR,,0.00,WeatherDisplay:10.37,2013-02-19 20:45:00,
2013-02-19 13:00:00,43.5,43.0,29.77,NW,318,10.0,30.0,98,0.00,CLR,,0.00,WeatherDisplay:10.37,2013-02-19 21:00:00,
2013-02-19 13:15:00,46.2,45.7,29.77,WNW,300,12.0,14.0,98,0.00,CLR,,0.00,WeatherDisplay:10.37,2013-02-19 21:15:00,
2013-02-19 13:30:00,47.1,46.6,29.77,WNW,293,17.0,20.0,98,0.00,CLR,,0.00,WeatherDisplay:10.37,2013-02-19 21:30:00,
2013-02-19 13:45:00,46.2,45.7,29.77,WNW,293,16.0,29.0,98,0.00,CLR,,0.00,WeatherDisplay:10.37,2013-02-19 21:45:00,
2013-02-19 14:00:00,46.4,45.8,29.77,WNW,292,17.0,20.0,98,0.00,CLR,,0.00,WeatherDisplay:10.37,2013-02-19 22:00:00,
2013-02-19 14:15:00,48.2,47.1,29.77,WNW,294,18.0,21.0,96,0.00,CLR,,0.00,WeatherDisplay:10.37,2013-02-19 22:15:00,
2013-02-19 14:30:00,48.9,46.1,29.74,WNW,298,28.0,33.0,90,0.00,CLR,,0.00,WeatherDisplay:10.37,2013-02-19 22:30:00,
2013-02-19 14:45:00,49.1,45.1,29.74,WNW,300,24.0,30.0,86,0.00,CLR,,0.00,WeatherDisplay:10.37,2013-02-19 22:45:00,
2013-02-19 15:00:00,48.7,44.4,29.74,WNW,293,25.0,32.0,85,0.00,CLR,,0.00,WeatherDisplay:10.37,2013-02-19 23:00:00,
2013-02-19 15:15:00,48.7,44.7,29.77,WNW,293,28.0,32.0,86,0.00,,,0.00,WeatherDisplay:10.37,2013-02-19 23:15:00,
2013-02-19 15:30:00,48.7,45.6,29.74,WNW,293,26.0,32.0,89,0.00,CLR,,0.00,WeatherDisplay:10.37,2013-02-19 23:30:00,
2013-02-19 15:45:00,48.1,44.7,29.74,WNW,292,25.0,31.0,88,0.00,,,0.00,WeatherDisplay:10.37,2013-02-19 23:45:00,
2013-02-19 16:00:00,48.0,45.5,29.74,WNW,303,20.0,32.0,91,0.00,CLR,,0.00,WeatherDisplay:10.37,2013-02-20 00:00:00,
2013-02-19 16:15:00,47.5,44.4,29.74,WNW,301,25.0,31.0,89,0.00,CLR,,0.00,WeatherDisplay:10.37,2013-02-20 00:15:00,
2013-02-19 16:30:00,47.5,45.9,29.74,WNW,292,28.0,36.0,94,0.00,CLR,,0.00,WeatherDisplay:10.37,2013-02-20 00:30:00,
2013-02-19 16:45:00,46.9,44.7,29.74,WNW,292,26.0,30.0,92,0.00,CLR,,0.00,WeatherDisplay:10.37,2013-02-20 00:45:00,
2013-02-19 17:00:00,47.1,44.9,29.74,WNW,292,26.0,33.0,92,0.00,CLR,,0.00,WeatherDisplay:10.37,2013-02-20 01:00:00,
2013-02-19 17:15:00,46.8,44.8,29.74,WNW,294,28.0,35.0,93,0.00,CLR,,0.00,WeatherDisplay:10.37,2013-02-20 01:15:00,
2013-02-19 17:30:00,46.6,45.0,29.74,WNW,294,26.0,33.0,94,0.00,CLR,,0.00,WeatherDisplay:10.37,2013-02-20 01:30:00,
2013-02-19 17:45:00,46.2,43.7,29.74,WNW,293,23.0,33.0,91,0.00,CLR,,0.00,WeatherDisplay:10.37,2013-02-20 01:45:00,
2013-02-19 18:00:00,46.0,43.8,29.74,WNW,296,24.0,35.0,92,0.00,CLR,,0.00,WeatherDisplay:10.37,2013-02-20 02:00:00,
2013-02-19 18:15:00,45.8,43.8,29.74,WNW,299,26.0,32.0,93,0.00,CLR,,0.00,WeatherDisplay:10.37,2013-02-20 02:15:00,
2013-02-19 18:30:00,45.5,43.9,29.74,WNW,296,23.0,35.0,94,0.00,CLR,,0.00,WeatherDisplay:10.37,2013-02-20 02:30:00,
2013-02-19 18:45:00,45.2,43.1,29.74,WNW,297,21.0,30.0,92,0.00,CLR,,0.00,WeatherDisplay:10.37,2013-02-20 02:45:00,
2013-02-19 19:15:00,45.2,43.6,29.74,WNW,298,18.0,26.0,94,0.00,CLR,,0.00,WeatherDisplay:10.37,2013-02-20 03:15:00,
2013-02-19 19:30:00,45.0,43.4,29.74,WNW,300,18.0,22.0,94,0.00,CLR,,0.00,WeatherDisplay:10.37,2013-02-20 03:30:00,
2013-02-19 19:45:00,44.9,43.2,29.74,WNW,300,17.0,23.0,94,0.00,CLR,,0.00,WeatherDisplay:10.37,2013-02-20 03:45:00,
2013-02-19 20:00:00,44.6,42.7,29.74,NW,306,13.0,20.0,93,0.00,CLR,,0.00,WeatherDisplay:10.37,2013-02-20 04:00:00,
2013-02-19 20:15:00,44.8,43.2,29.77,NW,306,12.0,17.0,94,0.00,CLR,,0.00,WeatherDisplay:10.37,2013-02-20 04:15:00,
2013-02-19 20:30:00,44.8,42.9,29.77,WNW,301,13.0,16.0,93,0.00,CLR,,0.00,WeatherDisplay:10.37,2013-02-20 04:30:00,
2013-02-19 20:45:00,44.8,42.3,29.77,NW,310,15.0,18.0,91,0.00,CLR,,0.00,WeatherDisplay:10.37,2013-02-20 04:45:00,
2013-02-19 21:00:00,45.1,42.4,29.77,WNW,299,18.0,23.0,90,0.00,CLR,,0.00,WeatherDisplay:10.37,2013-02-20 05:00:00,
2013-02-19 21:15:00,45.0,42.2,29.77,WNW,300,16.0,20.0,90,0.00,CLR,,0.00,WeatherDisplay:10.37,2013-02-20 05:15:00,
2013-02-19 21:30:00,45.0,41.9,29.77,NW,324,13.0,17.0,89,0.00,CLR,,0.00,WeatherDisplay:10.37,2013-02-20 05:30:00,
2013-02-19 21:45:00,44.9,42.4,29.77,WNW,301,13.0,16.0,91,0.00,CLR,,0.00,WeatherDisplay:10.37,2013-02-20 05:45:00,
2013-02-19 22:00:00,43.6,40.6,29.80,NNW,339,2.0,12.0,89,0.00,CLR,,0.00,WeatherDisplay:10.37,2013-02-20 06:00:00,
2013-02-19 22:15:00,43.3,40.6,29.80,NW,311,7.0,9.0,90,0.00,CLR,,0.00,WeatherDisplay:10.37,2013-02-20 06:15:00,
2013-02-19 22:30:00,43.7,41.2,29.80,NW,304,8.0,13.0,91,0.00,CLR,,0.00,WeatherDisplay:10.37,2013-02-20 06:30:00,
2013-02-19 22:45:00,44.2,42.3,29.80,NW,308,14.0,17.0,93,0.00,CLR,,0.00,WeatherDisplay:10.37,2013-02-20 06:45:00,
2013-02-19 23:00:00,44.1,42.2,29.80,WNW,301,13.0,16.0,93,0.00,CLR,,0.00,WeatherDisplay:10.37,2013-02-20 07:00:00,
2013-02-19 23:15:00,44.1,42.4,29.80,WNW,302,10.0,14.0,94,0.00,CLR,,0.00,WeatherDisplay:10.37,2013-02-20 07:15:00,
2013-02-19 23:30:00,43.7,41.8,29.80,NW,309,7.0,14.0,93,0.00,CLR,,0.00,WeatherDisplay:10.37,2013-02-20 07:30:00,
2013-02-19 23:45:00,42.4,40.6,29.80,East,79,1.0,6.0,93,0.00,CLR,,0.00,WeatherDisplay:10.37,2013-02-20 07:45:00,